Glacier Park International Airport
KGPI : now visible

Airfield :











YOU CAN JOIN US ON...

 
LOGIN :

Register | Disclaimer

   EN    FR    IT 

 









Legend :    VFR   Marginal VFR   IFR   Intensive IFR   Very Intensive IFR
Visi :
Ceiling :
>= 8 km
>= 3000ft
5 to 8 km
1000 to 3000 ft
1500m to 5 km
500 to 1000 ft
800 to 1500m
200 to 500 ft
< 800m
< 200 ft
Symbols :   Thunderstorms  Fog  Heavy snow  Heavy precipitations  Wind > 20 kt







- Airport Elevation : 2977 ft
- IATA code : FCA


KGPI - Glacier Park International

CURRENT METAR :
  • 222355Z 00000KT 10SM BKN110 19/14 A2994 RMK AO2 RAB13E33 SLP126 P0000 60020 T01940144 10233 20172 53003

EXPIRED METARs :
  • 222255Z 21006KT 10SM BKN080 OVC095 18/15 A2994 RMK AO2 RAE40 SLP125 P0009 T01830150
  • 222210Z 19005KT 3SM RA FEW040 BKN075 OVC090 18/15 A2993 RMK AO2 P0006 T01780150
  • 222155Z 17004KT 3SM RA FEW037 BKN050 OVC065 17/14 A2993 RMK AO2 RAB41 SLP124 P0009 T01720144
  • 222147Z 23005KT 1 1/2SM +RA FEW034 BKN047 OVC055 18/13 A2993 RMK AO2 RAB41 P0002 T01780133

TAF KGPI
Valid from the 23 at 00:00 until the 24 at 00:00 UTC


222320Z 2300/2324 21006KT P6SM VCSH BKN080 OVC100
FM230300 16008KT P6SM BKN100
FM231000 VRB03KT 1SM BR FEW003 BKN015
FM231600 08005KT P6SM SKC
No reported NOTAMs for that airfield.



MET'MAP, your aeronautical weather chart ! - Copyright ORBIFLY December 2007 - Disclaimer

ORBIFLY MET'MAP TEAM :

Programming & Development : Alexandra Zaïnal
Concept & Development : Baudouin d'Aumeries
Co-Development & Prog : Marc-Olivier Méhu
Technical & hardware support : Manuel Goepfert

Contact : metmap@orbifly.com




SOURCES & CREDITS :

   NOAA       Earth
Advisory